Time;durP1;ratioP1;P1;durP2;ratioP2;P2;SDS_P1;SDS_P2;PMS_P1;PMS_P2;Temp;Humidity;BMP_temperature;BMP_pressure;BME280_temperature;BME280_humidity;BME280_pressure;Samples;Min_cycle;Max_cycle;Signal;HPM_P1;HPM_P2
2023/10/30 13:45:22;;;;;;;1.95;0.50;;;16.20;95.20;;;;;;5071361;28;20445;-59
2023/10/30 13:47:47;;;;;;;1.77;0.80;;;17.50;95.90;;;;;;5070448;28;20058;-59
2023/10/30 13:50:13;;;;;;;3.58;0.60;;;17.80;95.80;;;;;;5071024;28;20074;-60
2023/10/30 13:52:39;;;;;;;1.05;0.50;;;18.10;95.50;;;;;;5070672;28;20031;-59
2023/10/30 13:55:04;;;;;;;4.88;0.80;;;18.30;95.30;;;;;;5070265;28;20392;-60
2023/10/30 13:57:30;;;;;;;2.85;0.40;;;18.40;95.00;;;;;;5070460;28;20452;-59
2023/10/30 13:59:56;;;;;;;0.90;0.60;;;18.60;94.70;;;;;;5070269;28;20063;-58
2023/10/30 14:02:21;;;;;;;1.65;0.50;;;18.80;94.50;;;;;;5070777;28;20029;-58
2023/10/30 14:04:47;;;;;;;2.40;0.40;;;18.90;94.20;;;;;;5070029;28;20398;-58
2023/10/30 14:07:13;;;;;;;1.20;0.30;;;19.00;94.00;;;;;;5070112;28;20075;-58
2023/10/30 14:09:38;;;;;;;1.13;0.30;;;19.10;93.70;;;;;;5070069;28;20017;-58
2023/10/30 14:12:04;;;;;;;1.23;0.45;;;19.20;93.50;;;;;;5069995;28;20032;-58
2023/10/30 14:14:30;;;;;;;1.48;0.22;;;19.30;93.30;;;;;;5069959;28;20049;-59
2023/10/30 14:16:56;;;;;;;0.57;0.30;;;19.30;93.10;;;;;;5069918;28;20389;-58
2023/10/30 14:19:21;;;;;;;0.77;0.40;;;19.40;92.90;;;;;;5070433;28;20480;-58
2023/10/30 14:21:47;;;;;;;1.40;0.10;;;19.50;92.70;;;;;;5069823;28;20036;-58
2023/10/30 14:24:12;;;;;;;1.08;0.50;;;19.50;92.50;;;;;;5069868;28;20032;-58
2023/10/30 14:26:38;;;;;;;1.45;0.50;;;19.50;92.40;;;;;;5069728;28;20096;-58
2023/10/30 14:29:05;;;;;;;1.65;0.38;;;19.60;92.20;;;;;;5069647;28;20021;-58
2023/10/30 14:31:31;;;;;;;1.40;0.50;;;19.60;92.10;;;;;;5069625;28;20074;-59
2023/10/30 14:33:56;;;;;;;0.70;0.20;;;19.70;92.40;;;;;;5069801;28;20024;-58
2023/10/30 14:36:22;;;;;;;0.57;0.30;;;19.70;91.80;;;;;;5069529;28;20028;-58
2023/10/30 14:38:51;;;;;;;0.63;0.22;;;19.70;91.70;;;;;;5070003;28;20017;-58
2023/10/30 14:41:16;;;;;;;0.47;0.30;;;19.70;91.60;;;;;;5069934;28;20063;-59
2023/10/30 14:43:42;;;;;;;0.52;0.28;;;19.70;91.50;;;;;;5069046;28;20021;-58
2023/10/30 14:46:08;;;;;;;0.98;0.30;;;19.80;91.50;;;;;;5069539;28;20060;-58
2023/10/30 14:48:34;;;;;;;0.60;0.40;;;19.80;91.40;;;;;;5069493;28;20021;-58
2023/10/30 14:50:59;;;;;;;0.80;0.43;;;19.80;91.30;;;;;;5069436;28;20021;-58
2023/10/30 14:53:25;;;;;;;0.98;0.40;;;19.80;91.20;;;;;;5069051;28;20553;-58
2023/10/30 14:55:53;;;;;;;2.20;0.38;;;19.80;91.10;;;;;;5060825;28;20028;-58
2023/10/30 14:58:19;;;;;;;1.00;0.35;;;19.80;91.10;;;;;;5056154;28;20440;-58
2023/10/30 15:00:45;;;;;;;1.77;0.55;;;19.80;91.00;;;;;;5056066;28;20033;-58
2023/10/30 15:03:11;;;;;;;0.82;0.40;;;19.80;90.90;;;;;;5055861;28;20017;-59
2023/10/30 15:05:37;;;;;;;0.55;0.20;;;19.80;90.90;;;;;;5055733;28;20059;-58
2023/10/30 15:08:02;;;;;;;0.73;0.40;;;19.80;90.80;;;;;;5055702;28;20027;-58
2023/10/30 15:10:28;;;;;;;1.70;0.50;;;19.80;90.80;;;;;;5056220;28;20440;-58
2023/10/30 15:12:56;;;;;;;1.65;0.30;;;19.90;90.70;;;;;;5055513;28;20477;-59
2023/10/30 15:15:23;;;;;;;0.88;0.45;;;19.80;90.70;;;;;;5055542;28;20021;-58
2023/10/30 15:17:48;;;;;;;0.57;0.30;;;19.80;90.60;;;;;;5055532;28;20025;-58
2023/10/30 15:20:14;;;;;;;1.05;0.55;;;19.90;90.60;;;;;;5055473;28;20035;-58
2023/10/30 15:22:40;;;;;;;1.55;0.40;;;19.80;90.50;;;;;;5056014;28;20021;-58
2023/10/30 15:25:07;;;;;;;0.75;0.40;;;19.80;90.50;;;;;;5055296;28;20512;-59
2023/10/30 15:27:35;;;;;;;0.70;0.22;;;19.80;90.50;;;;;;5055556;28;20021;-58
2023/10/30 15:30:06;;;;;;;0.75;0.22;;;19.80;90.40;;;;;;5055873;28;20385;-58
2023/10/30 15:32:38;;;;;;;1.02;0.28;;;19.80;90.40;;;;;;5055317;28;20523;-58
2023/10/30 15:35:04;;;;;;;1.65;0.50;;;19.80;90.40;;;;;;5055379;28;20029;-58
2023/10/30 15:37:30;;;;;;;0.80;0.30;;;19.80;90.40;;;;;;5055112;28;20021;-59
2023/10/30 15:39:56;;;;;;;2.13;0.68;;;19.80;90.40;;;;;;5055329;28;20025;-57
2023/10/30 15:42:25;;;;;;;0.65;0.30;;;19.80;90.40;;;;;;5055295;28;20110;-58
2023/10/30 15:44:51;;;;;;;2.50;0.47;;;19.80;90.30;;;;;;5054807;28;20415;-57
2023/10/30 15:47:16;;;;;;;0.77;0.30;;;19.80;90.40;;;;;;5054935;28;20017;-57
2023/10/30 15:49:42;;;;;;;1.38;0.57;;;19.80;90.30;;;;;;5054904;28;20020;-57
2023/10/30 15:52:07;;;;;;;4.60;1.25;;;19.80;90.30;;;;;;5054870;28;20117;-58
2023/10/30 15:54:33;;;;;;;3.15;1.27;;;19.80;90.50;;;;;;5054709;28;20074;-57
2023/10/30 15:56:58;;;;;;;6.78;1.90;;;19.80;90.60;;;;;;5055038;28;20024;-57
2023/10/30 15:59:24;;;;;;;6.47;2.40;;;19.80;90.70;;;;;;5055278;28;20501;-57
2023/10/30 16:01:49;;;;;;;4.07;1.38;;;19.90;90.90;;;;;;5053423;28;20485;-58
2023/10/30 16:04:15;;;;;;;5.82;1.80;;;19.90;91.00;;;;;;5054444;28;20535;-57
2023/10/30 16:06:41;;;;;;;6.30;2.00;;;19.90;91.30;;;;;;5036261;28;20036;-58
2023/10/30 16:09:06;;;;;;;5.28;1.90;;;19.90;91.20;;;;;;5054321;28;20021;-58
2023/10/30 16:11:32;;;;;;;3.65;1.52;;;19.90;91.20;;;;;;5055034;28;20025;-59
2023/10/30 16:13:58;;;;;;;3.60;1.38;;;19.90;91.10;;;;;;5054838;28;20078;-57
2023/10/30 16:16:23;;;;;;;3.28;2.40;;;19.90;91.10;;;;;;5054563;28;20028;-58
2023/10/30 16:18:52;;;;;;;4.45;1.35;;;19.90;91.10;;;;;;5054366;28;20378;-58
2023/10/30 16:21:17;;;;;;;3.08;1.35;;;19.90;91.10;;;;;;5054298;28;20028;-58
2023/10/30 16:23:43;;;;;;;2.00;1.10;;;19.90;91.00;;;;;;5054579;28;20025;-58
2023/10/30 16:26:08;;;;;;;4.57;1.25;;;19.90;91.00;;;;;;5054753;28;20036;-57
2023/10/30 16:28:34;;;;;;;3.17;1.10;;;19.90;91.00;;;;;;5054144;28;20025;-58
2023/10/30 16:30:59;;;;;;;5.47;1.60;;;19.90;91.00;;;;;;5054115;28;20429;-58
2023/10/30 16:33:25;;;;;;;4.03;1.58;;;19.90;91.00;;;;;;5054306;28;20036;-59
2023/10/30 16:35:51;;;;;;;4.13;1.58;;;19.90;91.10;;;;;;5054075;28;20053;-58
2023/10/30 16:38:17;;;;;;;4.13;1.65;;;19.90;91.30;;;;;;5054260;28;20049;-58
2023/10/30 16:40:42;;;;;;;3.80;1.38;;;20.00;91.70;;;;;;5053926;28;20060;-58
2023/10/30 16:43:08;;;;;;;2.33;1.20;;;20.00;91.70;;;;;;5053530;28;20032;-58
2023/10/30 16:45:33;;;;;;;2.65;1.20;;;20.00;91.60;;;;;;5053870;28;20059;-58
2023/10/30 16:47:59;;;;;;;3.72;1.30;;;20.00;91.60;;;;;;5054053;28;20104;-59
2023/10/30 16:50:24;;;;;;;2.10;1.00;;;20.00;91.60;;;;;;5053734;28;20021;-59
2023/10/30 16:52:50;;;;;;;3.28;1.23;;;20.10;91.40;;;;;;5053599;28;20025;-59
2023/10/30 16:55:16;;;;;;;2.70;1.13;;;20.10;91.30;;;;;;5053666;28;20025;-58
2023/10/30 16:57:41;;;;;;;2.63;1.10;;;20.10;91.20;;;;;;5053869;28;20531;-59
2023/10/30 17:00:07;;;;;;;1.70;0.98;;;20.20;91.20;;;;;;5054311;28;20039;-58
2023/10/30 17:02:33;;;;;;;2.17;1.10;;;20.20;91.00;;;;;;5053816;28;20025;-58
2023/10/30 17:04:58;;;;;;;1.27;0.90;;;20.30;91.00;;;;;;5053380;28;20509;-58
2023/10/30 17:07:25;;;;;;;2.50;0.90;;;20.30;90.80;;;;;;5053487;28;20052;-58
2023/10/30 17:09:51;;;;;;;2.10;1.20;;;20.40;90.60;;;;;;5053672;28;20021;-58
2023/10/30 17:12:16;;;;;;;1.33;0.68;;;20.50;90.50;;;;;;5053664;28;20385;-58
2023/10/30 17:14:42;;;;;;;2.20;0.90;;;20.50;90.40;;;;;;5053311;28;20371;-58
2023/10/30 17:17:08;;;;;;;1.38;0.88;;;20.60;90.30;;;;;;5053877;28;20071;-59
2023/10/30 17:19:33;;;;;;;1.63;0.88;;;20.60;90.20;;;;;;5053068;28;20028;-59
2023/10/30 17:21:59;;;;;;;1.75;1.00;;;20.70;90.10;;;;;;5053218;28;20029;-58
2023/10/30 17:24:24;;;;;;;2.92;1.10;;;20.70;90.00;;;;;;5053111;28;20036;-59
2023/10/30 17:26:50;;;;;;;1.73;0.80;;;20.80;89.90;;;;;;5053196;28;20029;-59
2023/10/30 17:29:15;;;;;;;2.22;0.90;;;20.80;89.70;;;;;;5053740;28;20021;-59
2023/10/30 17:31:41;;;;;;;2.42;0.90;;;20.90;89.50;;;;;;5051894;28;20050;-59
2023/10/30 17:34:07;;;;;;;2.00;1.05;;;20.90;89.40;;;;;;5053060;28;20447;-59
2023/10/30 17:36:33;;;;;;;2.05;1.15;;;21.00;89.40;;;;;;5053364;28;20158;-64
2023/10/30 17:38:58;;;;;;;2.67;1.15;;;21.00;89.20;;;;;;5053039;28;20108;-59
2023/10/30 17:41:24;;;;;;;1.45;1.08;;;21.00;89.10;;;;;;5053301;28;20025;-60
2023/10/30 17:43:50;;;;;;;5.28;1.42;;;21.10;89.00;;;;;;5052832;28;20110;-61
2023/10/30 17:46:16;;;;;;;3.17;1.35;;;21.20;88.90;;;;;;5052979;28;20029;-58
2023/10/30 17:48:41;;;;;;;6.25;1.10;;;21.20;88.80;;;;;;5052965;28;20027;-58
2023/10/30 17:51:07;;;;;;;2.83;1.20;;;21.20;88.90;;;;;;5052914;28;20021;-58
2023/10/30 17:53:32;;;;;;;2.08;1.00;;;21.20;88.90;;;;;;5053263;28;20079;-58
2023/10/30 17:55:58;;;;;;;3.42;1.27;;;21.20;88.90;;;;;;5052887;28;20071;-58
2023/10/30 17:58:24;;;;;;;3.13;1.35;;;21.30;89.00;;;;;;5052872;28;20056;-58
2023/10/30 18:00:49;;;;;;;2.28;0.82;;;21.30;89.10;;;;;;5052890;28;20040;-57
2023/10/30 18:03:15;;;;;;;1.77;0.90;;;21.30;89.10;;;;;;5052669;28;20555;-58
2023/10/30 18:05:42;;;;;;;2.05;1.00;;;21.30;89.20;;;;;;5052800;28;20100;-57
2023/10/30 18:08:08;;;;;;;2.38;1.10;;;21.30;89.20;;;;;;5053060;28;20021;-58
2023/10/30 18:10:34;;;;;;;2.00;1.00;;;21.30;89.30;;;;;;5053764;28;20033;-57
2023/10/30 18:12:59;;;;;;;2.15;1.02;;;21.40;89.40;;;;;;5052635;28;20504;-58
2023/10/30 18:15:25;;;;;;;1.83;0.85;;;21.40;89.40;;;;;;5052740;28;20448;-57
2023/10/30 18:17:50;;;;;;;2.88;1.15;;;21.40;89.40;;;;;;5052960;28;20017;-58
2023/10/30 18:20:16;;;;;;;2.65;1.05;;;21.40;89.40;;;;;;5053233;28;20025;-57
2023/10/30 18:22:42;;;;;;;1.80;1.17;;;21.40;89.40;;;;;;5053219;28;20470;-57
2023/10/30 18:25:08;;;;;;;2.60;1.15;;;21.40;89.40;;;;;;5052468;28;20032;-58
2023/10/30 18:27:33;;;;;;;2.97;0.98;;;21.40;89.40;;;;;;5052401;28;20025;-58
2023/10/30 18:29:59;;;;;;;1.38;1.05;;;21.50;89.30;;;;;;5052710;28;20150;-57
2023/10/30 18:32:25;;;;;;;3.97;1.00;;;21.50;89.20;;;;;;5056357;28;20408;-60
2023/10/30 18:34:51;;;;;;;4.47;1.35;;;21.50;89.30;;;;;;5056710;28;20021;-61
2023/10/30 18:37:16;;;;;;;3.55;1.25;;;21.50;89.40;;;;;;5056108;28;20025;-58
2023/10/30 18:39:42;;;;;;;3.58;1.25;;;21.50;89.70;;;;;;5056077;28;20028;-58
2023/10/30 18:42:07;;;;;;;2.08;1.08;;;21.60;90.00;;;;;;5056047;28;20029;-60
2023/10/30 18:44:33;;;;;;;2.88;1.35;;;21.60;90.10;;;;;;5055730;28;20091;-58
2023/10/30 18:46:59;;;;;;;2.72;1.23;;;21.60;90.10;;;;;;5056021;28;20064;-58
2023/10/30 18:49:25;;;;;;;3.38;1.15;;;21.70;90.20;;;;;;5056184;28;20017;-58
2023/10/30 18:51:50;;;;;;;7.15;1.20;;;21.80;90.20;;;;;;5055798;28;20489;-59
2023/10/30 18:54:16;;;;;;;5.93;1.13;;;21.80;90.20;;;;;;5056035;28;20025;-59
2023/10/30 18:56:41;;;;;;;2.80;1.00;;;21.80;90.20;;;;;;5055836;28;20128;-60
2023/10/30 18:59:07;;;;;;;1.95;1.00;;;21.80;90.20;;;;;;5056048;28;20047;-59
2023/10/30 19:01:33;;;;;;;4.00;1.10;;;21.90;90.20;;;;;;5056309;28;20040;-58
2023/10/30 19:03:58;;;;;;;2.97;1.13;;;21.90;90.20;;;;;;5055568;28;20025;-60
2023/10/30 19:06:24;;;;;;;1.50;0.90;;;22.00;90.20;;;;;;5056020;28;20109;-61
2023/10/30 19:08:51;;;;;;;3.60;1.10;;;22.00;90.10;;;;;;5054409;28;20152;-58
2023/10/30 19:11:18;;;;;;;2.55;1.13;;;22.00;90.10;;;;;;5055533;28;20047;-58
2023/10/30 19:13:43;;;;;;;3.67;1.25;;;22.00;90.10;;;;;;5055471;28;20389;-61
2023/10/30 19:16:09;;;;;;;2.60;1.20;;;22.10;90.10;;;;;;5055597;28;20032;-61
2023/10/30 19:18:34;;;;;;;4.03;1.02;;;22.10;90.10;;;;;;5055615;28;20435;-60
2023/10/30 19:21:00;;;;;;;5.25;1.45;;;22.10;90.10;;;;;;5055644;28;20029;-59
2023/10/30 19:23:26;;;;;;;1.88;0.85;;;22.10;90.10;;;;;;5055427;28;20024;-60
2023/10/30 19:25:51;;;;;;;3.33;1.20;;;22.10;90.10;;;;;;5055293;28;20033;-60
2023/10/30 19:28:17;;;;;;;2.28;1.20;;;22.20;90.10;;;;;;5055263;28;20049;-60
2023/10/30 19:30:43;;;;;;;2.33;1.20;;;22.20;90.10;;;;;;5055206;28;20025;-61
2023/10/30 19:33:09;;;;;;;2.72;0.93;;;22.20;90.00;;;;;;5055127;28;20385;-60
2023/10/30 19:35:34;;;;;;;2.38;1.10;;;22.20;90.00;;;;;;5055203;28;20021;-59
2023/10/30 19:38:00;;;;;;;1.60;1.08;;;22.30;90.00;;;;;;5055343;28;20504;-60
2023/10/30 19:40:27;;;;;;;5.47;1.10;;;22.30;90.00;;;;;;5055018;28;20028;-60
2023/10/30 19:42:53;;;;;;;2.28;1.00;;;22.30;90.00;;;;;;5054626;28;20100;-61
2023/10/30 19:45:19;;;;;;;4.22;1.35;;;22.30;89.90;;;;;;5054706;28;20557;-59
2023/10/30 19:47:47;;;;;;;2.75;1.10;;;22.40;90.00;;;;;;5054958;28;20025;-63
2023/10/30 19:50:12;;;;;;;2.47;0.98;;;22.40;89.90;;;;;;5054794;28;20430;-63
2023/10/30 19:52:39;;;;;;;4.05;1.10;;;22.40;89.90;;;;;;5054829;28;20048;-63
2023/10/30 19:55:06;;;;;;;3.15;1.20;;;22.40;89.90;;;;;;5054704;28;20017;-61
2023/10/30 19:57:31;;;;;;;2.97;1.38;;;22.40;89.90;;;;;;5054728;28;20082;-61
2023/10/30 19:59:57;;;;;;;1.92;1.10;;;22.40;90.00;;;;;;5054712;28;20021;-60
2023/10/30 20:02:22;;;;;;;2.83;1.00;;;22.50;90.00;;;;;;5054935;28;20478;-60
2023/10/30 20:04:48;;;;;;;3.83;1.10;;;22.50;90.00;;;;;;5054410;28;20021;-60
2023/10/30 20:07:14;;;;;;;6.90;1.30;;;22.50;90.00;;;;;;5054903;28;20082;-60
2023/10/30 20:09:41;;;;;;;2.53;0.90;;;22.50;90.00;;;;;;5054770;28;20155;-59
2023/10/30 20:12:07;;;;;;;2.80;0.77;;;22.50;89.90;;;;;;5054703;28;20017;-60
2023/10/30 20:14:32;;;;;;;3.90;1.30;;;22.50;89.80;;;;;;5063278;22;20136;-64
2023/10/30 20:16:58;;;;;;;5.28;1.20;;;22.50;89.80;;;;;;5014646;28;20018;-63
2023/10/30 20:19:23;;;;;;;4.95;1.10;;;22.60;89.80;;;;;;5014626;28;20026;-64
2023/10/30 20:21:49;;;;;;;4.30;1.00;;;22.50;89.70;;;;;;5014550;28;20368;-64
2023/10/30 20:24:15;;;;;;;1.58;0.88;;;22.50;89.70;;;;;;5014427;28;20433;-63
2023/10/30 20:26:40;;;;;;;3.80;1.10;;;22.60;89.70;;;;;;5014576;28;20133;-65
2023/10/30 20:29:06;;;;;;;2.30;1.00;;;22.60;89.70;;;;;;5015014;28;20026;-64
2023/10/30 20:31:32;;;;;;;1.20;0.73;;;22.60;89.70;;;;;;5014724;28;20083;-63
2023/10/30 20:33:57;;;;;;;3.95;0.90;;;22.60;89.60;;;;;;5014371;28;20569;-65
2023/10/30 20:36:23;;;;;;;1.95;1.15;;;22.70;89.60;;;;;;5014405;28;20487;-64
2023/10/30 20:38:49;;;;;;;2.65;1.17;;;22.70;89.50;;;;;;5014310;28;20395;-63
2023/10/30 20:41:18;;;;;;;4.75;1.15;;;22.70;89.30;;;;;;5014568;28;20485;-64
2023/10/30 20:43:44;;;;;;;3.58;1.20;;;22.70;89.20;;;;;;5012869;28;20037;-69
2023/10/30 20:46:12;;;;;;;3.05;1.02;;;22.70;89.40;;;;;;5012844;28;20097;-66
2023/10/30 20:48:38;;;;;;;5.93;1.40;;;22.70;89.10;;;;;;5014491;28;20022;-66
2023/10/30 20:51:04;;;;;;;5.20;1.52;;;22.70;88.80;;;;;;5014428;28;20475;-67
2023/10/30 20:53:30;;;;;;;5.03;1.52;;;22.70;88.50;;;;;;5013601;28;20471;-67
2023/10/30 20:55:56;;;;;;;3.40;1.20;;;22.70;88.30;;;;;;5013929;28;20093;-66
2023/10/30 20:58:21;;;;;;;3.38;1.60;;;22.60;87.90;;;;;;5014107;28;20505;-68
2023/10/30 21:00:47;;;;;;;1.92;1.13;;;22.50;87.10;;;;;;5014288;28;20033;-68
2023/10/30 21:03:14;;;;;;;4.22;1.50;;;22.50;86.80;;;;;;5014001;28;20022;-67
2023/10/30 21:05:40;;;;;;;2.80;1.92;;;22.50;86.80;;;;;;5013952;28;20105;-66
2023/10/30 21:08:05;;;;;;;3.83;1.55;;;22.40;87.00;;;;;;5014013;28;20022;-66
2023/10/30 21:10:31;;;;;;;4.57;1.40;;;22.50;87.20;;;;;;5014137;28;20029;-67
2023/10/30 21:12:57;;;;;;;1.73;0.98;;;22.50;87.20;;;;;;5013924;28;20478;-67
2023/10/30 21:15:23;;;;;;;5.50;1.17;;;22.40;87.20;;;;;;5014190;28;20061;-67
2023/10/30 21:17:50;;;;;;;3.88;1.52;;;22.40;87.20;;;;;;5014717;28;20030;-63
2023/10/30 21:20:16;;;;;;;3.05;1.25;;;22.40;87.30;;;;;;5012700;28;20022;-65
2023/10/30 21:22:42;;;;;;;2.70;1.10;;;22.40;87.30;;;;;;5013597;28;20513;-65
2023/10/30 21:25:07;;;;;;;2.33;1.10;;;22.40;87.40;;;;;;5013700;28;20045;-65
2023/10/30 21:27:37;;;;;;;2.97;1.60;;;22.40;87.40;;;;;;5013574;28;20398;-66
2023/10/30 21:30:04;;;;;;;2.47;1.70;;;22.40;87.40;;;;;;5013528;28;20109;-67
2023/10/30 21:32:30;;;;;;;3.75;1.63;;;22.40;87.40;;;;;;5012259;28;20393;-66
2023/10/30 21:34:55;;;;;;;5.70;2.30;;;22.40;87.40;;;;;;5013693;28;20104;-66
2023/10/30 21:37:21;;;;;;;6.07;2.40;;;22.40;87.40;;;;;;5014463;28;20030;-67
2023/10/30 21:39:47;;;;;;;6.07;2.20;;;22.40;87.30;;;;;;5013437;28;20471;-67
2023/10/30 21:42:13;;;;;;;5.57;2.10;;;22.40;87.30;;;;;;5012369;28;20022;-66
2023/10/30 21:44:38;;;;;;;9.13;2.38;;;22.40;87.30;;;;;;5013248;28;20022;-66
2023/10/30 21:47:05;;;;;;;8.20;2.67;;;22.40;87.20;;;;;;5013393;28;20026;-66
2023/10/30 21:49:32;;;;;;;4.15;1.80;;;22.40;87.10;;;;;;5014161;28;20045;-66
2023/10/30 21:51:57;;;;;;;6.20;2.10;;;22.40;87.10;;;;;;5013605;28;20119;-66
2023/10/30 21:54:23;;;;;;;4.35;1.60;;;22.40;87.00;;;;;;5013760;28;20372;-66
2023/10/30 21:56:49;;;;;;;6.93;2.20;;;22.40;87.00;;;;;;5013537;28;20364;-65
2023/10/30 21:59:14;;;;;;;3.45;1.30;;;22.40;87.00;;;;;;5013242;28;20022;-66
2023/10/30 22:01:40;;;;;;;5.55;2.10;;;22.40;87.00;;;;;;5013261;28;20034;-66
2023/10/30 22:04:07;;;;;;;5.88;1.80;;;22.40;87.00;;;;;;5013011;28;20022;-65
2023/10/30 22:06:32;;;;;;;5.88;2.00;;;22.40;86.90;;;;;;5015950;28;20026;-65
2023/10/30 22:08:58;;;;;;;5.35;2.15;;;22.40;86.90;;;;;;5017384;28;20117;-65
2023/10/30 22:11:24;;;;;;;5.50;1.90;;;22.40;86.90;;;;;;5017116;28;20102;-65
2023/10/30 22:13:49;;;;;;;7.13;2.15;;;22.40;86.80;;;;;;5016835;28;20483;-65
2023/10/30 22:16:15;;;;;;;5.25;1.98;;;22.40;86.80;;;;;;5017056;28;20088;-65
2023/10/30 22:18:40;;;;;;;5.05;1.95;;;22.40;86.70;;;;;;5016984;28;20026;-65
2023/10/30 22:21:06;;;;;;;4.45;1.80;;;22.40;86.70;;;;;;5016905;28;20028;-65
2023/10/30 22:23:32;;;;;;;5.10;2.00;;;22.40;86.70;;;;;;5016803;28;20060;-65
2023/10/30 22:25:58;;;;;;;7.88;1.92;;;22.30;86.60;;;;;;5016769;28;20026;-65
2023/10/30 22:28:23;;;;;;;4.30;2.08;;;22.30;86.60;;;;;;5016761;28;20033;-65
2023/10/30 22:30:49;;;;;;;4.57;1.73;;;22.30;86.60;;;;;;5016763;28;20022;-65
2023/10/30 22:33:14;;;;;;;5.80;2.20;;;22.30;86.60;;;;;;5016951;28;20076;-65
2023/10/30 22:35:40;;;;;;;6.63;2.10;;;22.30;86.50;;;;;;5016857;28;20022;-65
2023/10/30 22:38:05;;;;;;;3.50;1.63;;;22.30;86.50;;;;;;5016619;28;20014;-65
2023/10/30 22:40:31;;;;;;;5.10;1.60;;;22.30;86.50;;;;;;5016838;28;20385;-65
2023/10/30 22:42:56;;;;;;;4.50;1.80;;;22.30;86.60;;;;;;5016526;28;20088;-66
2023/10/30 22:45:22;;;;;;;4.40;2.08;;;22.30;86.60;;;;;;5016318;28;20037;-65
2023/10/30 22:47:48;;;;;;;4.03;1.50;;;22.30;86.60;;;;;;5016410;28;20033;-65
2023/10/30 22:50:13;;;;;;;5.25;1.45;;;22.30;86.60;;;;;;5016929;28;20097;-64
2023/10/30 22:52:39;;;;;;;4.85;1.65;;;22.20;86.60;;;;;;5016387;28;20033;-65
2023/10/30 22:55:05;;;;;;;3.30;1.45;;;22.20;86.60;;;;;;5016217;28;20048;-65
2023/10/30 22:57:30;;;;;;;2.90;1.25;;;22.20;86.60;;;;;;5016561;28;20046;-65
2023/10/30 22:59:56;;;;;;;3.70;1.20;;;22.20;86.50;;;;;;5016744;28;20411;-65
2023/10/30 23:02:22;;;;;;;2.72;1.40;;;22.30;86.40;;;;;;5016447;28;20021;-66
2023/10/30 23:04:48;;;;;;;2.67;1.60;;;22.30;86.40;;;;;;5015992;28;20398;-65
2023/10/30 23:07:13;;;;;;;3.55;1.25;;;22.30;86.30;;;;;;5016105;28;20053;-65
2023/10/30 23:09:40;;;;;;;3.95;1.58;;;22.20;86.20;;;;;;5016110;28;20014;-65
2023/10/30 23:12:06;;;;;;;1.73;1.20;;;22.20;86.20;;;;;;5016264;28;20021;-65
2023/10/30 23:14:31;;;;;;;3.45;1.20;;;22.20;86.20;;;;;;5015869;28;20056;-65
2023/10/30 23:16:57;;;;;;;3.50;1.17;;;22.20;86.10;;;;;;5015684;28;20104;-65
2023/10/30 23:19:23;;;;;;;2.90;1.20;;;22.20;86.10;;;;;;5015850;28;20014;-65
2023/10/30 23:21:49;;;;;;;2.47;1.05;;;22.20;86.00;;;;;;5016080;28;20034;-65
2023/10/30 23:24:14;;;;;;;2.05;0.95;;;22.20;86.00;;;;;;5015647;28;20022;-64
2023/10/30 23:26:40;;;;;;;2.85;0.88;;;22.20;85.90;;;;;;5016064;28;20075;-65
2023/10/30 23:29:06;;;;;;;2.88;1.10;;;22.20;85.80;;;;;;5015716;28;20022;-66
2023/10/30 23:31:31;;;;;;;1.70;0.70;;;22.20;85.80;;;;;;5016217;28;20030;-66
2023/10/30 23:33:57;;;;;;;1.85;1.10;;;22.20;85.70;;;;;;5015554;28;20081;-66
2023/10/30 23:36:23;;;;;;;2.17;0.95;;;22.20;85.70;;;;;;5015526;28;20100;-65
2023/10/30 23:38:49;;;;;;;1.52;0.75;;;22.20;85.60;;;;;;5015540;28;20034;-66
2023/10/30 23:41:14;;;;;;;1.80;0.88;;;22.20;85.60;;;;;;5015683;28;20152;-66
2023/10/30 23:43:41;;;;;;;2.88;0.80;;;22.20;85.50;;;;;;5015248;28;20029;-65
2023/10/30 23:46:07;;;;;;;2.50;1.00;;;22.20;85.50;;;;;;5015390;28;20022;-65
2023/10/30 23:48:32;;;;;;;2.72;0.75;;;22.20;85.50;;;;;;5015564;28;20025;-65
2023/10/30 23:50:58;;;;;;;3.63;1.10;;;22.20;85.40;;;;;;5015250;28;20032;-65
2023/10/30 23:53:23;;;;;;;1.65;0.90;;;22.20;85.40;;;;;;5015226;28;20101;-65
2023/10/30 23:55:49;;;;;;;2.00;0.73;;;22.20;85.30;;;;;;5015708;28;20029;-65
2023/10/30 23:58:14;;;;;;;2.80;0.85;;;22.20;85.30;;;;;;5015119;28;20493;-65
